Time;durP1;ratioP1;P1;durP2;ratioP2;P2;SDS_P1;SDS_P2;PMS_P1;PMS_P2;Temp;Humidity;BMP_temperature;BMP_pressure;BME280_temperature;BME280_humidity;BME280_pressure;Samples;Min_cycle;Max_cycle;Signal;HPM_P1;HPM_P2
2021/12/05 00:23:25;;;;;;;144.50;53.60;;;;;;;0.99;62.09;97204.13;105110;1325;25430;-74
2021/12/05 00:25:55;;;;;;;114.00;48.60;;;;;;;0.99;62.04;97204.33;105081;1319;22601;-75
2021/12/05 00:28:51;;;;;;;119.30;47.80;;;;;;;0.99;61.98;97210.64;105286;1325;26789;-75
2021/12/05 00:46:58;;;;;;;68.60;26.90;;;;;;;1.04;61.31;97205.95;105103;1324;22591;-74
2021/12/05 00:55:08;;;;;;;22.10;9.90;;;;;;;1.11;60.17;97225.50;105107;1324;22718;-75
2021/12/05 01:08:22;;;;;;;37.00;14.70;;;;;;;1.17;60.14;97219.69;105105;1324;22591;-75
2021/12/05 01:12:08;;;;;;;23.10;10.10;;;;;;;1.18;60.53;97219.16;105149;1324;22614;-74
2021/12/05 01:16:38;;;;;;;41.80;15.70;;;;;;;1.19;60.98;97210.35;104751;1322;22862;-75
2021/12/05 01:19:11;;;;;;;27.60;11.70;;;;;;;1.19;61.05;97208.64;105090;1325;22640;-76
2021/12/05 01:21:39;;;;;;;;;;;;;;;1.19;61.31;97211.52;105104;1324;22626;-74
2021/12/05 01:24:20;;;;;;;43.70;15.70;;;;;;;1.19;61.27;97208.11;105092;1318;22715;-75
2021/12/05 01:34:36;;;;;;;28.30;13.10;;;;;;;1.21;61.47;97218.65;105103;1324;22723;-74
2021/12/05 01:40:37;;;;;;;28.90;13.10;;;;;;;1.21;61.71;97222.80;105097;1324;24053;-75
2021/12/05 02:01:38;;;;;;;28.00;10.40;;;;;;;1.24;61.03;97215.80;105101;1324;23719;-74
2021/12/05 02:34:40;;;;;;;30.20;12.70;;;;;;;1.24;63.75;97195.52;105381;1324;22592;-75
2021/12/05 02:42:22;;;;;;;20.50;10.40;;;;;;;1.19;63.94;97196.80;105459;1322;22601;-74
2021/12/05 02:44:49;;;;;;;23.20;11.30;;;;;;;1.12;64.07;97201.61;105414;1322;22650;-74
2021/12/05 02:47:20;;;;;;;24.80;10.40;;;;;;;1.07;64.26;97204.27;105390;1322;22588;-74
2021/12/05 02:49:50;;;;;;;18.70;10.00;;;;;;;1.01;65.04;97198.71;105370;1324;25359;-74
2021/12/05 02:52:26;;;;;;;26.80;12.20;;;;;;;0.95;65.54;97197.67;105383;1324;22738;-74
2021/12/05 02:55:08;;;;;;;20.50;11.40;;;;;;;0.94;66.23;97202.16;105386;1324;25364;-74
2021/12/05 03:00:18;;;;;;;19.30;10.80;;;;;;;0.87;68.51;97204.23;105380;1323;22580;-74
2021/12/05 03:02:49;;;;;;;22.70;12.10;;;;;;;0.80;68.87;97204.90;105414;1325;22825;-75
2021/12/05 03:05:20;;;;;;;23.60;11.80;;;;;;;0.73;68.87;97202.34;105404;1322;22588;-74
2021/12/05 03:07:49;;;;;;;22.50;11.10;;;;;;;0.68;68.75;97203.98;105428;1322;22597;-74
2021/12/05 03:10:21;;;;;;;21.10;11.60;;;;;;;0.62;69.12;97197.40;105418;1324;22565;-73
2021/12/05 03:12:48;;;;;;;21.20;11.30;;;;;;;0.61;69.65;97195.40;105426;1325;22593;-75
2021/12/05 03:15:17;;;;;;;23.10;11.90;;;;;;;0.61;70.02;97198.31;105318;1325;24017;-75
2021/12/05 03:17:45;;;;;;;23.40;12.50;;;;;;;0.61;70.81;97198.98;105106;1325;22677;-76
2021/12/05 03:20:14;;;;;;;26.70;13.00;;;;;;;0.60;70.95;97197.84;105166;1312;22580;-76
2021/12/05 03:22:42;;;;;;;29.40;15.00;;;;;;;0.58;71.03;97197.41;105097;1325;24239;-75
2021/12/05 03:25:11;;;;;;;31.10;14.90;;;;;;;0.56;70.90;97193.56;105179;1325;22595;-76
2021/12/05 03:27:41;;;;;;;30.60;15.00;;;;;;;0.53;70.87;97193.88;105120;1322;22588;-75
2021/12/05 03:30:12;;;;;;;36.50;16.00;;;;;;;0.51;70.91;97191.77;105086;1325;22564;-74
2021/12/05 03:32:40;;;;;;;63.10;24.90;;;;;;;0.53;71.24;97188.06;105134;1325;22576;-75
2021/12/05 03:35:09;;;;;;;68.10;25.70;;;;;;;0.53;72.16;97184.27;105123;1325;22744;-74
2021/12/05 03:37:36;;;;;;;46.10;20.40;;;;;;;0.53;73.20;97188.77;105078;1324;22611;-75
2021/12/05 03:40:07;;;;;;;39.20;17.60;;;;;;;0.50;73.36;97188.56;105027;1325;22592;-76
2021/12/05 03:42:35;;;;;;;31.60;16.90;;;;;;;0.48;73.10;97187.64;105201;1324;22609;-75
2021/12/05 03:45:08;;;;;;;32.70;16.90;;;;;;;0.45;72.92;97188.63;105122;1325;25345;-75
2021/12/05 03:47:36;;;;;;;32.60;16.10;;;;;;;0.44;73.07;97185.80;105117;1323;22644;-75
2021/12/05 03:50:09;;;;;;;31.40;16.70;;;;;;;0.46;72.97;97183.07;105107;1324;22614;-75
2021/12/05 03:52:37;;;;;;;34.20;17.00;;;;;;;0.48;73.55;97187.64;105076;1325;24469;-76
2021/12/05 03:55:06;;;;;;;32.70;16.30;;;;;;;0.48;73.96;97184.56;105100;1324;22598;-75
2021/12/05 03:57:34;;;;;;;34.10;17.20;;;;;;;0.46;74.35;97183.08;105107;1325;24477;-75
2021/12/05 04:00:04;;;;;;;33.10;16.90;;;;;;;0.45;74.26;97183.67;105071;1324;22857;-75
2021/12/05 04:02:33;;;;;;;32.00;15.80;;;;;;;0.41;74.56;97193.11;105114;1325;22714;-76
2021/12/05 04:05:00;;;;;;;33.20;15.80;;;;;;;0.38;74.42;97193.72;105110;1324;22714;-75
2021/12/05 04:07:27;;;;;;;43.10;20.50;;;;;;;0.43;74.04;97191.98;105133;1325;22618;-76
2021/12/05 04:09:54;;;;;;;49.80;21.40;;;;;;;0.45;74.45;97186.91;105094;1324;22575;-76
2021/12/05 04:12:22;;;;;;;38.90;17.00;;;;;;;0.46;75.46;97193.73;105101;1325;26823;-76
2021/12/05 04:14:54;;;;;;;33.60;17.20;;;;;;;0.43;75.52;97194.02;105106;1320;26725;-76
2021/12/05 04:17:22;;;;;;;34.20;17.10;;;;;;;0.40;75.12;97194.86;105118;1324;23442;-76
2021/12/05 04:19:50;;;;;;;33.20;16.50;;;;;;;0.37;75.06;97195.67;105202;1324;22592;-76
2021/12/05 04:22:18;;;;;;;26.50;14.40;;;;;;;0.35;75.09;97195.41;105126;1323;22585;-76
2021/12/05 04:24:46;;;;;;;27.40;14.90;;;;;;;0.38;75.14;97195.42;105142;1325;24143;-76
2021/12/05 04:27:14;;;;;;;26.10;13.70;;;;;;;0.40;75.76;97197.94;105265;1325;22586;-76
2021/12/05 04:29:41;;;;;;;27.60;14.60;;;;;;;0.39;76.08;97202.23;105409;1324;22688;-75
2021/12/05 04:32:08;;;;;;;32.50;17.00;;;;;;;0.37;76.06;97202.66;105179;1324;25402;-75
2021/12/05 04:34:36;;;;;;;25.50;13.90;;;;;;;0.36;76.51;97202.58;105082;1319;22585;-76
2021/12/05 04:37:04;;;;;;;26.00;13.50;;;;;;;0.34;75.92;97205.09;105116;1325;24267;-76
2021/12/05 04:39:31;;;;;;;30.80;15.10;;;;;;;0.32;75.82;97208.06;105403;1325;22949;-75
2021/12/05 04:41:58;;;;;;;28.90;14.70;;;;;;;0.36;76.06;97207.36;105154;1324;22596;-76
2021/12/05 04:44:26;;;;;;;30.90;16.00;;;;;;;0.37;76.10;97209.00;105156;1324;22744;-75
2021/12/05 04:46:54;;;;;;;25.10;14.10;;;;;;;0.40;76.44;97207.36;105089;1324;22583;-75
2021/12/05 04:49:21;;;;;;;27.40;15.40;;;;;;;0.39;76.62;97210.63;105537;1323;24603;-76
2021/12/05 04:51:49;;;;;;;26.10;15.00;;;;;;;0.39;76.97;97216.48;105109;1325;25569;-75
2021/12/05 04:54:18;;;;;;;23.30;13.30;;;;;;;0.36;76.87;97217.27;105170;1323;23104;-75
2021/12/05 04:56:48;;;;;;;28.90;13.80;;;;;;;0.34;76.41;97215.85;105118;1323;22627;-75
2021/12/05 04:59:17;;;;;;;26.40;14.10;;;;;;;0.37;76.60;97215.85;105117;1324;22592;-76
2021/12/05 05:01:47;;;;;;;29.20;17.00;;;;;;;0.37;76.92;97214.48;105092;1324;26208;-76
2021/12/05 05:04:25;;;;;;;25.00;13.70;;;;;;;0.36;77.21;97214.52;105110;1324;22647;-76
2021/12/05 05:06:56;;;;;;;24.80;14.10;;;;;;;0.34;77.29;97214.16;105155;1324;22622;-75
2021/12/05 05:09:24;;;;;;;26.20;13.70;;;;;;;0.32;77.58;97214.05;105107;1324;22797;-75
2021/12/05 05:11:51;;;;;;;28.60;14.50;;;;;;;0.31;77.13;97212.03;105098;1325;22719;-75
2021/12/05 05:14:18;;;;;;;31.10;16.10;;;;;;;0.31;76.81;97215.48;105113;1324;22746;-75
2021/12/05 05:16:47;;;;;;;33.70;17.30;;;;;;;0.35;76.79;97216.66;105106;1324;22773;-75
2021/12/05 05:19:17;;;;;;;30.80;16.20;;;;;;;0.36;77.13;97214.88;105151;1322;23521;-75
2021/12/05 05:22:01;;;;;;;26.60;14.70;;;;;;;0.40;77.84;97216.61;105121;1325;22587;-75
2021/12/05 05:40:25;;;;;;;42.70;20.30;;;;;;;0.41;77.25;97241.77;105068;1325;22776;-75
2021/12/05 05:50:54;;;;;;;38.80;18.40;;;;;;;0.38;77.45;97248.70;105080;1325;22592;-75
2021/12/05 05:53:21;;;;;;;38.20;20.30;;;;;;;0.37;77.41;97249.26;105174;1325;22627;-75
2021/12/05 05:55:49;;;;;;;33.80;18.20;;;;;;;0.43;77.63;97251.27;105118;1325;26813;-75
2021/12/05 05:58:19;;;;;;;47.30;23.70;;;;;;;0.45;78.04;97251.85;105084;1324;22754;-75
2021/12/05 06:01:06;;;;;;;59.40;26.10;;;;;;;0.45;78.58;97253.37;105131;1323;26235;-75
2021/12/05 06:03:33;;;;;;;62.60;26.40;;;;;;;0.42;78.51;97256.24;105119;1325;22631;-76
2021/12/05 06:06:09;;;;;;;49.30;21.70;;;;;;;0.41;78.24;97255.77;105137;1324;22607;-76
2021/12/05 06:08:38;;;;;;;41.00;20.40;;;;;;;0.40;78.14;97258.91;105136;1324;22648;-76
2021/12/05 06:11:08;;;;;;;34.40;19.80;;;;;;;0.39;78.02;97259.65;105129;1324;23139;-76
2021/12/05 06:13:38;;;;;;;34.50;20.50;;;;;;;0.43;77.92;97261.18;105140;1325;22652;-75
2021/12/05 06:16:10;;;;;;;32.10;19.20;;;;;;;0.44;78.39;97261.30;105202;1323;26337;-77
2021/12/05 06:18:39;;;;;;;31.90;19.20;;;;;;;0.42;78.91;97267.56;105168;1323;22675;-76
2021/12/05 06:21:08;;;;;;;37.10;20.20;;;;;;;0.36;78.88;97267.96;105143;1324;24494;-76
2021/12/05 06:23:36;;;;;;;28.80;17.80;;;;;;;0.33;78.81;97272.23;105127;1324;22723;-76
2021/12/05 06:26:08;;;;;;;33.60;18.70;;;;;;;0.31;78.56;97273.52;105118;1324;22670;-75
2021/12/05 06:28:44;;;;;;;33.80;19.10;;;;;;;0.31;78.37;97276.76;105092;1324;22653;-76
2021/12/05 06:31:36;;;;;;;40.00;19.90;;;;;;;0.36;78.45;97277.24;105121;1320;24452;-76
2021/12/05 06:46:13;;;;;;;36.00;20.30;;;;;;;0.32;79.48;97291.12;104707;1322;22580;-78
2021/12/05 06:48:43;;;;;;;49.00;24.70;;;;;;;0.39;78.86;97300.23;105159;1325;22596;-78
2021/12/05 06:51:12;;;;;;;44.90;22.60;;;;;;;0.42;79.04;97303.70;105130;1322;22665;-78
2021/12/05 06:53:39;;;;;;;43.20;22.20;;;;;;;0.41;79.35;97306.15;105160;1325;22597;-78
2021/12/05 06:56:07;;;;;;;48.70;24.60;;;;;;;0.38;79.30;97310.71;105139;1325;22596;-75
2021/12/05 06:58:35;;;;;;;51.80;26.40;;;;;;;0.37;79.11;97309.54;105124;1324;27686;-78
2021/12/05 07:01:07;;;;;;;50.90;26.70;;;;;;;0.38;79.01;97315.84;105139;1325;22606;-76
2021/12/05 07:03:37;;;;;;;60.70;31.90;;;;;;;0.39;78.65;97319.42;104819;1324;429329;-76
2021/12/05 07:06:10;;;;;;;78.60;40.30;;;;;;;0.44;78.68;97322.64;105153;1322;22632;-75
2021/12/05 07:08:41;;;;;;;66.30;32.40;;;;;;;0.46;78.98;97327.47;105120;1324;26744;-76
2021/12/05 07:11:23;;;;;;;68.50;34.50;;;;;;;0.48;79.39;97326.20;105117;1325;22673;-75
2021/12/05 07:40:54;;;;;;;38.20;20.00;;;;;;;0.39;79.89;97336.00;105133;1325;22591;-77
2021/12/05 07:43:21;;;;;;;42.60;22.30;;;;;;;0.42;79.58;97334.19;105168;1325;25303;-76
2021/12/05 07:45:56;;;;;;;33.20;19.50;;;;;;;0.44;79.98;97331.68;105140;1325;22728;-75
2021/12/05 07:48:32;;;;;;;37.40;20.50;;;;;;;0.47;80.61;97332.91;105101;1325;22623;-75
2021/12/05 07:51:13;;;;;;;37.10;19.40;;;;;;;0.46;80.50;97331.41;105092;1325;22819;-75
2021/12/05 07:56:28;;;;;;;48.80;23.30;;;;;;;0.43;80.08;97331.56;105122;1325;22582;-76
2021/12/05 08:15:29;;;;;;;77.40;47.30;;;;;;;0.53;80.72;97332.67;105143;1323;23659;-76
2021/12/05 08:17:58;;;;;;;48.80;27.20;;;;;;;0.58;80.09;97339.11;105161;1325;22642;-76
2021/12/05 08:20:37;;;;;;;68.90;36.20;;;;;;;0.65;80.05;97341.50;105151;1325;24011;-76
2021/12/05 08:23:06;;;;;;;52.30;29.90;;;;;;;0.70;80.45;97349.84;105152;1325;22656;-76
2021/12/05 08:25:36;;;;;;;55.30;29.10;;;;;;;0.73;80.75;97346.79;105070;1323;24423;-76
2021/12/05 08:30:47;;;;;;;72.60;35.20;;;;;;;0.72;80.79;97352.48;105073;1325;25309;-76
2021/12/05 08:41:53;;;;;;;72.10;32.10;;;;;;;0.87;80.45;97352.33;105131;1325;22602;-77
2021/12/05 09:26:31;;;;;;;36.90;20.80;;;;;;;1.41;80.08;97382.35;105096;1325;22732;-75
2021/12/05 10:10:31;;;;;;;85.40;35.00;;;;;;;1.43;79.60;97402.64;104599;1326;25299;-76
2021/12/05 10:15:45;;;;;;;72.70;34.80;;;;;;;1.48;79.36;97398.45;105089;1324;22674;-75
2021/12/05 10:27:09;;;;;;;94.20;40.40;;;;;;;1.58;79.78;97413.23;105092;1325;26024;-76
2021/12/05 10:38:50;;;;;;;62.50;28.50;;;;;;;1.68;79.92;97415.52;104163;1335;22671;-76
2021/12/05 10:43:52;;;;;;;136.40;56.90;;;;;;;1.68;79.91;97421.86;104178;1336;22599;-76
2021/12/05 10:46:23;;;;;;;117.50;53.30;;;;;;;1.67;79.65;97421.05;104184;1335;22731;-78
2021/12/05 10:49:00;;;;;;;88.70;45.50;;;;;;;1.67;79.46;97416.39;104215;1336;22683;-75
2021/12/05 10:51:33;;;;;;;72.50;40.00;;;;;;;1.69;79.25;97416.13;104199;1335;22691;-77
2021/12/05 10:54:08;;;;;;;77.30;40.50;;;;;;;1.73;79.41;97421.26;104202;1336;22708;-76
2021/12/05 10:56:38;;;;;;;71.90;41.10;;;;;;;1.74;79.57;97420.70;104176;1336;22599;-76
2021/12/05 10:59:07;;;;;;;54.50;33.10;;;;;;;1.77;79.90;97421.73;104223;1336;22619;-77
2021/12/05 11:01:55;;;;;;;62.90;35.10;;;;;;;1.76;79.89;97420.25;104199;1336;25469;-82
2021/12/05 11:04:35;;;;;;;63.60;35.60;;;;;;;1.75;79.66;97416.52;104224;1333;22634;-76
2021/12/05 11:07:18;;;;;;;67.80;38.80;;;;;;;1.76;79.60;97419.74;104218;1336;22597;-76
2021/12/05 11:09:57;;;;;;;64.40;36.40;;;;;;;1.79;79.28;97425.08;104239;1335;22724;-76
2021/12/05 11:12:35;;;;;;;82.60;42.20;;;;;;;1.82;79.10;97426.48;104208;1335;25335;-75
2021/12/05 11:15:13;;;;;;;87.60;49.40;;;;;;;1.81;79.45;97433.03;105058;1325;22611;-76
2021/12/05 11:17:43;;;;;;;67.30;35.80;;;;;;;1.79;79.71;97438.13;105381;1324;26585;-77
2021/12/05 11:20:29;;;;;;;82.40;41.70;;;;;;;1.77;79.63;97451.64;105421;1325;22727;-81
2021/12/05 11:22:56;;;;;;;78.30;39.30;;;;;;;1.74;79.53;97459.46;105454;1325;22613;-75
2021/12/05 11:25:30;;;;;;;137.60;57.50;;;;;;;1.69;79.51;97464.17;105414;1325;22658;-75
2021/12/05 11:28:08;;;;;;;104.90;40.30;;;;;;;1.67;79.03;97469.42;105384;1325;22587;-76
2021/12/05 11:30:40;;;;;;;107.10;45.30;;;;;;;1.67;79.39;97468.56;105400;1325;22634;-74
2021/12/05 11:33:19;;;;;;;179.00;64.30;;;;;;;1.67;79.78;97463.93;105386;1324;22592;-75
2021/12/05 11:35:58;;;;;;;131.10;57.30;;;;;;;1.64;79.84;97462.89;105381;1325;22656;-75
2021/12/05 11:38:27;;;;;;;159.80;71.70;;;;;;;1.61;79.95;97458.91;105399;1325;22607;-76
2021/12/05 11:41:02;;;;;;;165.20;77.40;;;;;;;1.59;79.74;97460.20;105408;1325;22688;-83
2021/12/05 11:43:51;;;;;;;103.40;56.20;;;;;;;1.61;79.57;97466.14;105459;1325;22606;-82
2021/12/05 11:46:22;;;;;;;144.30;75.60;;;;;;;1.59;79.40;97466.55;105377;1322;22606;-75
2021/12/05 11:48:53;;;;;;;226.30;93.50;;;;;;;1.63;79.57;97468.95;105402;1324;22743;-75
2021/12/05 11:51:27;;;;;;;264.70;102.60;;;;;;;1.64;79.76;97467.00;105393;1325;22576;-81
2021/12/05 11:53:59;;;;;;;;;;;;;;;1.65;80.27;97461.27;105171;1324;22608;-75
2021/12/05 11:56:29;;;;;;;223.50;93.90;;;;;;;1.65;80.28;97463.20;105233;1325;22596;-75
2021/12/05 11:59:05;;;;;;;146.00;67.00;;;;;;;1.66;80.02;97463.29;105075;1325;22570;-75
2021/12/05 12:01:44;;;;;;;126.10;57.50;;;;;;;1.66;79.99;97464.50;105111;1325;22586;-75
2021/12/05 12:04:15;;;;;;;195.70;75.70;;;;;;;1.70;79.65;97461.03;105115;1325;22804;-76
2021/12/05 12:06:44;;;;;;;117.50;52.30;;;;;;;1.74;79.69;97457.61;105159;1325;22618;-76
2021/12/05 12:09:11;;;;;;;74.70;37.20;;;;;;;1.75;79.98;97459.92;105134;1324;22712;-76
2021/12/05 12:11:38;;;;;;;59.50;31.00;;;;;;;1.77;80.33;97458.83;105112;1325;22674;-75
2021/12/05 12:14:05;;;;;;;66.30;35.90;;;;;;;1.77;80.34;97459.67;105148;1324;22612;-76
2021/12/05 12:16:36;;;;;;;119.90;55.40;;;;;;;1.75;80.13;97460.45;105149;1325;22626;-75
2021/12/05 12:19:06;;;;;;;92.90;44.80;;;;;;;1.74;80.09;97460.50;105145;1325;22654;-77
2021/12/05 12:21:39;;;;;;;73.20;38.90;;;;;;;1.76;79.97;97461.45;105106;1325;22829;-77
2021/12/05 12:24:10;;;;;;;130.60;59.20;;;;;;;1.78;79.84;97460.48;105090;1325;25308;-77
2021/12/05 12:26:38;;;;;;;93.30;46.20;;;;;;;1.84;79.91;97462.09;105130;1323;22591;-76
2021/12/05 12:29:08;;;;;;;74.80;41.00;;;;;;;1.88;80.39;97463.43;105312;1325;22727;-76
2021/12/05 12:31:37;;;;;;;87.40;41.50;;;;;;;1.87;80.76;97463.63;105078;1324;22700;-77
2021/12/05 12:34:11;;;;;;;126.50;53.90;;;;;;;1.83;80.68;97461.24;105458;1325;22519;-76
2021/12/05 12:36:53;;;;;;;160.10;63.50;;;;;;;1.83;80.55;97456.11;105235;1325;22573;-77
2021/12/05 12:39:20;;;;;;;168.50;69.90;;;;;;;1.87;80.34;97452.45;105420;1325;22623;-77
2021/12/05 12:42:04;;;;;;;147.20;56.50;;;;;;;1.91;79.90;97451.96;105456;1325;22651;-78
2021/12/05 12:44:31;;;;;;;120.70;50.70;;;;;;;1.99;79.80;97447.24;105411;1325;22656;-77
2021/12/05 12:47:03;;;;;;;81.40;37.90;;;;;;;2.03;80.18;97445.86;105439;1324;22769;-78
2021/12/05 12:49:39;;;;;;;129.10;51.70;;;;;;;2.03;80.30;97445.03;105451;1325;22662;-77
2021/12/05 12:52:18;;;;;;;95.80;42.50;;;;;;;2.01;80.24;97440.44;105408;1324;22569;-76
2021/12/05 12:54:51;;;;;;;132.00;55.30;;;;;;;2.05;80.32;97443.22;105395;1325;25506;-75
2021/12/05 12:57:22;;;;;;;150.70;60.60;;;;;;;2.09;79.83;97443.34;105403;1325;22602;-75
2021/12/05 12:59:59;;;;;;;122.00;53.20;;;;;;;2.08;79.75;97445.45;105398;1322;22658;-75
2021/12/05 13:02:58;;;;;;;124.20;50.00;;;;;;;2.14;79.60;97448.59;105397;1324;22743;-76
2021/12/05 13:11:22;;;;;;;99.80;41.80;;;;;;;2.13;79.82;97457.54;105405;1325;25410;-75
2021/12/05 13:14:07;;;;;;;123.30;48.30;;;;;;;2.11;79.70;97457.81;105467;1324;24333;-75
2021/12/05 13:16:36;;;;;;;111.00;43.60;;;;;;;2.10;79.52;97460.79;105409;1324;22599;-76
2021/12/05 13:19:33;;;;;;;167.40;61.80;;;;;;;2.10;79.15;97458.58;105404;1325;25405;-75
2021/12/05 13:22:06;;;;;;;105.10;48.60;;;;;;;2.11;79.43;97458.84;105343;1325;22681;-75
2021/12/05 13:24:42;;;;;;;79.30;37.20;;;;;;;2.13;79.52;97455.02;105342;1322;22631;-75
2021/12/05 13:27:29;;;;;;;80.30;36.00;;;;;;;2.12;79.76;97460.91;105089;1323;22592;-77
2021/12/05 13:29:57;;;;;;;103.00;42.50;;;;;;;2.11;79.88;97465.20;105075;1324;22658;-76
2021/12/05 13:32:29;;;;;;;94.60;42.30;;;;;;;2.09;79.69;97466.86;105082;1325;22675;-75
2021/12/05 13:34:59;;;;;;;157.70;61.30;;;;;;;2.05;79.37;97470.69;105078;1322;22592;-76
2021/12/05 13:37:49;;;;;;;85.60;41.90;;;;;;;2.02;79.48;97466.68;105122;1325;22616;-77
2021/12/05 13:40:27;;;;;;;90.40;44.50;;;;;;;2.06;79.42;97465.63;105105;1324;22731;-76
2021/12/05 13:43:05;;;;;;;89.50;43.00;;;;;;;2.11;79.49;97472.58;105063;1325;24064;-75
2021/12/05 13:45:39;;;;;;;116.70;51.50;;;;;;;2.15;79.93;97471.73;105109;1324;22586;-75
2021/12/05 13:48:17;;;;;;;86.40;41.20;;;;;;;2.16;80.02;97472.70;105121;1324;22607;-76
2021/12/05 13:50:52;;;;;;;89.00;42.00;;;;;;;2.16;79.89;97473.71;105057;1324;22742;-76
2021/12/05 13:53:25;;;;;;;80.10;38.90;;;;;;;2.14;79.46;97475.20;105087;1325;22591;-75
2021/12/05 13:56:05;;;;;;;81.50;41.50;;;;;;;2.10;79.46;97470.58;105061;1325;23443;-76
2021/12/05 14:01:25;;;;;;;86.90;40.50;;;;;;;2.11;79.19;97466.24;105163;1325;22658;-76
2021/12/05 14:04:12;;;;;;;73.30;38.40;;;;;;;2.13;79.61;97471.15;105113;1324;22664;-76
2021/12/05 14:07:01;;;;;;;79.80;42.30;;;;;;;2.12;80.07;97476.86;105107;1323;22735;-76
2021/12/05 14:09:40;;;;;;;86.60;44.30;;;;;;;2.10;79.94;97481.73;105099;1320;22692;-76
2021/12/05 14:12:24;;;;;;;84.10;42.70;;;;;;;2.07;79.81;97478.65;105101;1322;22584;-76
2021/12/05 14:14:55;;;;;;;89.00;45.00;;;;;;;2.03;79.70;97479.70;105096;1324;22593;-76
2021/12/05 14:17:31;;;;;;;90.50;44.50;;;;;;;2.02;79.63;97479.92;105097;1325;22607;-76
2021/12/05 14:20:13;;;;;;;93.00;45.30;;;;;;;2.06;79.36;97483.02;105129;1324;22588;-76
2021/12/05 14:22:43;;;;;;;87.60;42.30;;;;;;;2.05;79.75;97488.00;105426;1324;22718;-76
2021/12/05 14:25:17;;;;;;;91.90;44.30;;;;;;;2.01;80.13;97483.41;104948;1326;22742;-77
2021/12/05 14:27:51;;;;;;;83.70;44.30;;;;;;;1.97;80.18;97481.73;105109;1326;22669;-76
2021/12/05 14:30:23;;;;;;;89.20;43.10;;;;;;;1.95;79.94;97478.23;105087;1326;22629;-76
2021/12/05 14:32:58;;;;;;;89.70;44.70;;;;;;;1.92;79.79;97479.37;105085;1326;22608;-76
2021/12/05 14:35:30;;;;;;;75.10;41.10;;;;;;;1.89;79.45;97481.70;105074;1326;22776;-76
2021/12/05 14:37:58;;;;;;;73.90;39.20;;;;;;;1.92;79.63;97485.04;105068;1326;22599;-76
2021/12/05 14:40:30;;;;;;;76.40;40.10;;;;;;;1.94;79.85;97489.25;105097;1326;22613;-76
2021/12/05 14:43:04;;;;;;;81.40;42.60;;;;;;;1.93;80.15;97495.45;105090;1326;22605;-76
2021/12/05 14:45:36;;;;;;;80.30;42.30;;;;;;;1.91;80.29;97499.68;105116;1326;22613;-76
2021/12/05 14:48:08;;;;;;;91.00;44.40;;;;;;;1.88;79.98;97504.11;105097;1322;22607;-76
2021/12/05 14:50:37;;;;;;;89.80;46.00;;;;;;;1.85;79.84;97507.87;104967;1326;22599;-76
2021/12/05 14:53:08;;;;;;;85.30;42.90;;;;;;;1.83;79.79;97508.81;105085;1326;22652;-76
2021/12/05 14:55:36;;;;;;;87.30;44.20;;;;;;;1.85;79.67;97517.11;105118;1326;26077;-76
2021/12/05 14:58:15;;;;;;;88.40;44.80;;;;;;;1.86;79.97;97515.88;105051;1325;22750;-76
2021/12/05 15:00:50;;;;;;;80.90;41.70;;;;;;;1.87;80.24;97526.48;105277;1326;22719;-77
2021/12/05 15:03:20;;;;;;;80.80;42.80;;;;;;;1.85;80.43;97540.30;104880;1326;340618;-76
2021/12/05 15:05:55;;;;;;;98.80;47.40;;;;;;;1.83;80.26;97547.27;105041;1325;22660;-77
2021/12/05 15:08:25;;;;;;;101.30;50.50;;;;;;;1.80;80.32;97551.88;105054;1324;22731;-76
2021/12/05 15:10:56;;;;;;;113.20;54.90;;;;;;;1.80;79.89;97555.33;105157;1326;22602;-76
2021/12/05 15:13:23;;;;;;;108.80;54.80;;;;;;;1.81;79.99;97555.77;105090;1325;22636;-77
2021/12/05 15:15:51;;;;;;;106.80;53.90;;;;;;;1.81;80.45;97559.73;105074;1325;22702;-77
2021/12/05 15:18:28;;;;;;;102.60;53.50;;;;;;;1.80;80.75;97565.79;105099;1326;22589;-76
2021/12/05 15:20:57;;;;;;;131.50;63.90;;;;;;;1.76;80.78;97562.21;105072;1325;26648;-78
2021/12/05 15:23:30;;;;;;;119.80;59.00;;;;;;;1.74;80.87;97561.08;105202;1319;22630;-77
2021/12/05 15:26:00;;;;;;;118.00;56.40;;;;;;;1.73;80.40;97554.61;105088;1324;23158;-76
2021/12/05 15:28:28;;;;;;;114.30;53.80;;;;;;;1.72;80.07;97548.98;105133;1324;22622;-76
2021/12/05 15:30:55;;;;;;;102.90;49.80;;;;;;;1.74;80.39;97548.73;105119;1325;22837;-77
2021/12/05 15:33:25;;;;;;;104.40;50.60;;;;;;;1.74;80.48;97552.66;105155;1325;24355;-77
2021/12/05 15:35:53;;;;;;;95.20;48.60;;;;;;;1.74;80.80;97553.16;105106;1323;26133;-77
2021/12/05 15:38:25;;;;;;;112.00;54.40;;;;;;;1.74;81.03;97553.02;105115;1319;23654;-76
2021/12/05 15:41:01;;;;;;;117.90;55.20;;;;;;;1.74;80.78;97544.61;105099;1324;22643;-75
2021/12/05 15:43:28;;;;;;;116.90;55.30;;;;;;;1.71;80.61;97534.09;105128;1325;22710;-76
2021/12/05 15:45:57;;;;;;;109.60;55.30;;;;;;;1.72;80.33;97531.46;105094;1325;22719;-77
2021/12/05 15:48:30;;;;;;;106.70;52.90;;;;;;;1.76;80.29;97531.32;105117;1325;22572;-78
2021/12/05 15:50:58;;;;;;;;;;;;;;;1.76;80.83;97524.80;105140;1325;22609;-77
2021/12/05 15:53:25;;;;;;;127.10;60.70;;;;;;;1.73;80.87;97529.71;105104;1325;22602;-77
2021/12/05 15:55:58;;;;;;;149.20;72.10;;;;;;;1.72;80.78;97536.30;105068;1324;22603;-76
2021/12/05 15:58:31;;;;;;;;;;;;;;;1.73;80.90;97544.63;105203;1324;22573;-76
2021/12/05 16:01:03;;;;;;;156.00;71.20;;;;;;;1.73;80.76;97547.39;105145;1325;23064;-76
2021/12/05 16:03:48;;;;;;;141.30;70.30;;;;;;;1.73;80.28;97546.19;105109;1325;22903;-77
2021/12/05 16:06:18;;;;;;;138.10;69.40;;;;;;;1.77;80.39;97549.64;105062;1325;22830;-77
2021/12/05 16:08:51;;;;;;;150.00;69.60;;;;;;;1.78;80.48;97552.82;105063;1325;23058;-76
2021/12/05 16:11:20;;;;;;;137.70;65.40;;;;;;;1.79;80.85;97555.05;105125;1321;22596;-76
2021/12/05 16:13:52;;;;;;;117.50;60.10;;;;;;;1.76;80.74;97560.30;105124;1325;22661;-76
2021/12/05 16:16:22;;;;;;;112.90;57.30;;;;;;;1.73;80.72;97553.58;105182;1324;22691;-77
2021/12/05 16:18:55;;;;;;;128.10;61.00;;;;;;;1.71;80.50;97551.11;105145;1324;22651;-77
2021/12/05 16:21:33;;;;;;;126.50;59.80;;;;;;;1.68;80.35;97553.51;105133;1325;22663;-76
2021/12/05 16:24:23;;;;;;;111.20;57.00;;;;;;;1.71;80.22;97567.05;105134;1324;25583;-76
2021/12/05 16:26:51;;;;;;;104.00;51.70;;;;;;;1.72;80.69;97580.73;105120;1325;22731;-77
2021/12/05 16:29:25;;;;;;;107.60;51.80;;;;;;;1.70;80.95;97582.37;105068;1325;22672;-77
2021/12/05 16:31:58;;;;;;;109.20;52.20;;;;;;;1.67;80.97;97581.17;105120;1325;25303;-77
2021/12/05 16:34:31;;;;;;;98.30;48.30;;;;;;;1.65;80.74;97581.26;105108;1323;22606;-77
2021/12/05 16:36:59;;;;;;;104.50;49.70;;;;;;;1.62;80.52;97584.13;105112;1324;22617;-77
2021/12/05 16:39:41;;;;;;;98.60;47.90;;;;;;;1.61;80.43;97583.86;105108;1325;25390;-76
2021/12/05 16:42:13;;;;;;;108.40;50.50;;;;;;;1.66;80.44;97582.08;105118;1319;22918;-77
2021/12/05 16:44:41;;;;;;;106.10;51.20;;;;;;;1.69;80.84;97588.45;105031;1325;23047;-77
2021/12/05 16:47:17;;;;;;;95.00;47.70;;;;;;;1.69;81.10;97598.41;105163;1324;22612;-76
2021/12/05 16:49:48;;;;;;;106.90;52.00;;;;;;;1.64;81.03;97600.85;105133;1324;22858;-76
2021/12/05 16:52:20;;;;;;;102.70;50.10;;;;;;;1.62;81.03;97602.01;105141;1324;22541;-76
2021/12/05 16:54:52;;;;;;;124.20;57.00;;;;;;;1.58;80.72;97602.36;105124;1324;22594;-76
2021/12/05 16:57:32;;;;;;;119.10;59.70;;;;;;;1.55;80.62;97606.26;105099;1323;24283;-75
2021/12/05 17:00:13;;;;;;;112.70;59.20;;;;;;;1.60;80.55;97608.78;105160;1324;22575;-77
2021/12/05 17:02:52;;;;;;;107.70;53.90;;;;;;;1.64;80.89;97602.23;105134;1325;22638;-77
2021/12/05 17:05:23;;;;;;;103.10;52.10;;;;;;;1.63;81.31;97598.70;105099;1325;23072;-75
2021/12/05 17:08:13;;;;;;;101.40;49.40;;;;;;;1.59;81.25;97598.87;105134;1325;25482;-76
2021/12/05 17:10:57;;;;;;;89.60;44.10;;;;;;;1.61;81.15;97605.79;105107;1325;23499;-76
2021/12/05 17:13:33;;;;;;;109.20;49.80;;;;;;;1.63;81.02;97610.02;105105;1325;25954;-76
2021/12/05 17:16:06;;;;;;;97.40;48.10;;;;;;;1.63;80.68;97607.93;105102;1324;22716;-76